sensor_id;sensor_type;location;lat;lon;timestamp;pressure;altitude;pressure_sealevel;temperature;humidity
8047;BME280;67150;42.516;23.358;2023-04-10T00:01:26;88429.50;;;5.08;63.54
8047;BME280;67150;42.516;23.358;2023-04-10T00:03:57;88413.00;;;5.06;63.39
8047;BME280;67150;42.516;23.358;2023-04-10T00:06:24;88419.50;;;5.08;63.47
8047;BME280;67150;42.516;23.358;2023-04-10T00:08:52;88413.00;;;5.06;63.61
8047;BME280;67150;42.516;23.358;2023-04-10T00:11:21;88409.63;;;5.07;63.73
8047;BME280;67150;42.516;23.358;2023-04-10T00:13:48;88406.22;;;5.08;63.55
8047;BME280;67150;42.516;23.358;2023-04-10T00:16:16;88406.22;;;5.08;63.70
8047;BME280;67150;42.516;23.358;2023-04-10T00:18:43;88408.72;;;5.08;63.40
8047;BME280;67150;42.516;23.358;2023-04-10T00:21:10;88406.22;;;5.08;63.48
8047;BME280;67150;42.516;23.358;2023-04-10T00:23:37;88402.94;;;5.07;63.95
8047;BME280;67150;42.516;23.358;2023-04-10T00:26:05;88400.44;;;5.07;63.45
8047;BME280;67150;42.516;23.358;2023-04-10T00:28:34;88406.22;;;5.08;63.68
8047;BME280;67150;42.516;23.358;2023-04-10T00:31:03;88395.44;;;5.07;63.56
8047;BME280;67150;42.516;23.358;2023-04-10T00:33:30;88395.44;;;5.07;63.63
8047;BME280;67150;42.516;23.358;2023-04-10T00:35:57;88396.22;;;5.08;63.85
8047;BME280;67150;42.516;23.358;2023-04-10T00:38:25;88394.63;;;5.07;63.57
8047;BME280;67150;42.516;23.358;2023-04-10T00:40:52;88389.63;;;5.07;63.45
8047;BME280;67150;42.516;23.358;2023-04-10T00:43:20;88392.84;;;5.09;63.39
8047;BME280;67150;42.516;23.358;2023-04-10T00:45:50;88387.94;;;5.07;63.90
8047;BME280;67150;42.516;23.358;2023-04-10T00:48:17;88383.72;;;5.08;63.77
8047;BME280;67150;42.516;23.358;2023-04-10T00:50:45;88386.22;;;5.08;63.82
8047;BME280;67150;42.516;23.358;2023-04-10T00:53:12;88384.66;;;5.07;63.54
8047;BME280;67150;42.516;23.358;2023-04-10T00:55:40;88388.72;;;5.08;63.69
8047;BME280;67150;42.516;23.358;2023-04-10T00:58:07;88383.72;;;5.08;63.58
8047;BME280;67150;42.516;23.358;2023-04-10T01:00:39;88379.66;;;5.07;63.66
8047;BME280;67150;42.516;23.358;2023-04-10T01:03:08;88382.16;;;5.07;63.41
8047;BME280;67150;42.516;23.358;2023-04-10T01:05:52;88376.25;;;5.08;63.69
8047;BME280;67150;42.516;23.358;2023-04-10T01:08:29;88374.66;;;5.07;63.85
8047;BME280;67150;42.516;23.358;2023-04-10T01:11:03;88369.66;;;5.07;63.68
8047;BME280;67150;42.516;23.358;2023-04-10T01:13:36;88367.16;;;5.07;63.41
8047;BME280;67150;42.516;23.358;2023-04-10T01:16:10;88363.88;;;5.06;63.66
8047;BME280;67150;42.516;23.358;2023-04-10T01:18:47;88369.66;;;5.07;63.33
8047;BME280;67150;42.516;23.358;2023-04-10T01:21:15;88369.66;;;5.07;63.42
8047;BME280;67150;42.516;23.358;2023-04-10T01:24:10;88366.25;;;5.08;63.31
8047;BME280;67150;42.516;23.358;2023-04-10T01:26:55;88365.47;;;5.07;63.28
8047;BME280;67150;42.516;23.358;2023-04-10T01:29:29;88364.66;;;5.07;63.49
8047;BME280;67150;42.516;23.358;2023-04-10T01:32:01;88362.25;;;5.05;63.58
8047;BME280;67150;42.516;23.358;2023-04-10T01:34:33;88366.34;;;5.06;63.24
8047;BME280;67150;42.516;23.358;2023-04-10T01:37:04;88363.88;;;5.06;63.38
8047;BME280;67150;42.516;23.358;2023-04-10T01:39:36;88371.25;;;5.08;63.50
8047;BME280;67150;42.516;23.358;2023-04-10T01:42:09;88366.34;;;5.06;63.55
8047;BME280;67150;42.516;23.358;2023-04-10T01:44:41;88366.34;;;5.06;63.33
8047;BME280;67150;42.516;23.358;2023-04-10T01:47:13;88373.03;;;5.06;63.43
8047;BME280;67150;42.516;23.358;2023-04-10T01:49:44;88371.34;;;5.06;63.45
8047;BME280;67150;42.516;23.358;2023-04-10T01:52:13;88365.53;;;5.06;63.53
8047;BME280;67150;42.516;23.358;2023-04-10T01:54:41;88361.38;;;5.06;63.76
8047;BME280;67150;42.516;23.358;2023-04-10T01:57:10;88357.25;;;5.05;63.54
8047;BME280;67150;42.516;23.358;2023-04-10T01:59:41;88367.16;;;5.07;63.59
8047;BME280;67150;42.516;23.358;2023-04-10T02:02:08;88364.66;;;5.07;63.61
8047;BME280;67150;42.516;23.358;2023-04-10T02:04:36;88355.72;;;5.03;63.37
8047;BME280;67150;42.516;23.358;2023-04-10T02:07:07;88363.06;;;5.06;63.77
8047;BME280;67150;42.516;23.358;2023-04-10T02:09:46;88363.06;;;5.06;63.32
8047;BME280;67150;42.516;23.358;2023-04-10T02:12:17;88359.75;;;5.05;63.49
8047;BME280;67150;42.516;23.358;2023-04-10T02:14:49;88353.88;;;5.06;63.59
8047;BME280;67150;42.516;23.358;2023-04-10T02:17:25;88350.50;;;5.07;63.57
8047;BME280;67150;42.516;23.358;2023-04-10T02:19:53;88353.94;;;5.05;63.40
8047;BME280;67150;42.516;23.358;2023-04-10T02:22:22;88351.44;;;5.05;63.51
8047;BME280;67150;42.516;23.358;2023-04-10T02:24:51;88355.56;;;5.06;63.67
8047;BME280;67150;42.516;23.358;2023-04-10T02:27:27;88344.69;;;5.07;63.66
8047;BME280;67150;42.516;23.358;2023-04-10T02:29:56;88345.84;;;5.01;63.46
8047;BME280;67150;42.516;23.358;2023-04-10T02:32:23;88348.88;;;5.06;63.81
8047;BME280;67150;42.516;23.358;2023-04-10T02:34:52;88352.25;;;5.05;63.91
8047;BME280;67150;42.516;23.358;2023-04-10T02:37:19;88346.38;;;5.06;63.90
8047;BME280;67150;42.516;23.358;2023-04-10T02:39:46;88348.88;;;5.06;63.42
8047;BME280;67150;42.516;23.358;2023-04-10T02:42:13;88343.06;;;5.06;63.41
8047;BME280;67150;42.516;23.358;2023-04-10T02:44:41;88338.09;;;5.06;63.46
8047;BME280;67150;42.516;23.358;2023-04-10T02:47:09;88334.88;;;5.04;63.62
8047;BME280;67150;42.516;23.358;2023-04-10T02:49:40;88333.97;;;5.05;63.58
8047;BME280;67150;42.516;23.358;2023-04-10T02:52:07;88338.09;;;5.06;63.75
8047;BME280;67150;42.516;23.358;2023-04-10T02:54:34;88333.19;;;5.04;63.74
8047;BME280;67150;42.516;23.358;2023-04-10T02:57:02;88336.47;;;5.05;63.53
8047;BME280;67150;42.516;23.358;2023-04-10T02:59:29;88332.38;;;5.04;63.63
8047;BME280;67150;42.516;23.358;2023-04-10T03:01:56;88328.97;;;5.05;63.49
8047;BME280;67150;42.516;23.358;2023-04-10T03:04:25;88334.78;;;5.05;63.73
8047;BME280;67150;42.516;23.358;2023-04-10T03:06:53;88329.88;;;5.04;63.89
8047;BME280;67150;42.516;23.358;2023-04-10T03:09:20;88341.47;;;5.05;63.46
8047;BME280;67150;42.516;23.358;2023-04-10T03:11:48;88330.69;;;5.04;63.77
8047;BME280;67150;42.516;23.358;2023-04-10T03:14:18;88331.47;;;5.05;63.90
8047;BME280;67150;42.516;23.358;2023-04-10T03:16:45;88330.69;;;5.04;63.73
8047;BME280;67150;42.516;23.358;2023-04-10T03:19:13;88322.56;;;5.01;63.68
8047;BME280;67150;42.516;23.358;2023-04-10T03:21:44;88327.44;;;5.02;63.76
8047;BME280;67150;42.516;23.358;2023-04-10T03:24:12;88329.88;;;5.04;63.56
8047;BME280;67150;42.516;23.358;2023-04-10T03:26:39;88336.47;;;5.05;63.43
8047;BME280;67150;42.516;23.358;2023-04-10T03:29:09;88334.88;;;5.04;63.55
8047;BME280;67150;42.516;23.358;2023-04-10T03:31:36;88339.88;;;5.04;63.53
8047;BME280;67150;42.516;23.358;2023-04-10T03:34:04;88343.19;;;5.04;63.36
8047;BME280;67150;42.516;23.358;2023-04-10T03:36:31;88334.88;;;5.04;63.53
8047;BME280;67150;42.516;23.358;2023-04-10T03:39:03;88334.88;;;5.04;63.72
8047;BME280;67150;42.516;23.358;2023-04-10T03:41:30;88329.88;;;5.04;63.63
8047;BME280;67150;42.516;23.358;2023-04-10T03:43:57;88329.94;;;5.02;63.55
8047;BME280;67150;42.516;23.358;2023-04-10T03:46:27;88334.06;;;5.03;63.51
8047;BME280;67150;42.516;23.358;2023-04-10T03:48:55;88330.75;;;5.03;63.99
8047;BME280;67150;42.516;23.358;2023-04-10T03:51:22;88330.75;;;5.03;63.62
8047;BME280;67150;42.516;23.358;2023-04-10T03:53:51;88331.63;;;5.02;63.72
8047;BME280;67150;42.516;23.358;2023-04-10T03:56:20;88329.94;;;5.02;64.05
8047;BME280;67150;42.516;23.358;2023-04-10T03:58:47;88332.44;;;5.02;63.55
8047;BME280;67150;42.516;23.358;2023-04-10T04:01:14;88332.44;;;5.02;63.57
8047;BME280;67150;42.516;23.358;2023-04-10T04:03:41;88330.06;;;5.01;63.56
8047;BME280;67150;42.516;23.358;2023-04-10T04:06:09;88331.63;;;5.02;63.70
8047;BME280;67150;42.516;23.358;2023-04-10T04:08:36;88332.44;;;5.02;63.64
8047;BME280;67150;42.516;23.358;2023-04-10T04:11:04;88332.44;;;5.02;63.44
8047;BME280;67150;42.516;23.358;2023-04-10T04:13:33;88335.03;;;5.01;63.71
8047;BME280;67150;42.516;23.358;2023-04-10T04:16:00;88336.63;;;5.02;63.52
8047;BME280;67150;42.516;23.358;2023-04-10T04:18:27;88340.84;;;5.01;63.77
8047;BME280;67150;42.516;23.358;2023-04-10T04:20:55;88334.13;;;5.02;63.77
8047;BME280;67150;42.516;23.358;2023-04-10T04:23:22;88331.63;;;5.02;63.42
8047;BME280;67150;42.516;23.358;2023-04-10T04:25:50;88340.03;;;5.01;63.47
8047;BME280;67150;42.516;23.358;2023-04-10T04:28:19;88329.50;;;4.96;63.79
8047;BME280;67150;42.516;23.358;2023-04-10T04:30:47;88338.41;;;5.00;63.54
8047;BME280;67150;42.516;23.358;2023-04-10T04:33:15;88346.81;;;4.99;63.54
8047;BME280;67150;42.516;23.358;2023-04-10T04:35:42;88338.41;;;5.00;63.75
8047;BME280;67150;42.516;23.358;2023-04-10T04:38:11;88344.22;;;5.00;63.93
8047;BME280;67150;42.516;23.358;2023-04-10T04:40:38;88336.81;;;4.99;63.94
8047;BME280;67150;42.516;23.358;2023-04-10T04:43:05;88338.41;;;5.00;63.85
8047;BME280;67150;42.516;23.358;2023-04-10T04:45:33;88338.41;;;5.00;63.58
8047;BME280;67150;42.516;23.358;2023-04-10T04:48:02;88338.41;;;5.00;63.95
8047;BME280;67150;42.516;23.358;2023-04-10T04:50:29;88344.22;;;5.00;63.86
8047;BME280;67150;42.516;23.358;2023-04-10T04:52:56;88340.09;;;4.99;63.76
8047;BME280;67150;42.516;23.358;2023-04-10T04:55:25;88348.41;;;5.00;63.70
8047;BME280;67150;42.516;23.358;2023-04-10T04:57:52;88345.84;;;5.01;63.53
8047;BME280;67150;42.516;23.358;2023-04-10T05:00:19;88347.59;;;4.99;63.91
8047;BME280;67150;42.516;23.358;2023-04-10T05:02:47;88349.31;;;4.99;63.71
8047;BME280;67150;42.516;23.358;2023-04-10T05:05:15;88343.50;;;4.98;63.65
8047;BME280;67150;42.516;23.358;2023-04-10T05:07:43;88342.00;;;4.96;63.98
8047;BME280;67150;42.516;23.358;2023-04-10T05:10:10;88350.91;;;5.00;64.13
8047;BME280;67150;42.516;23.358;2023-04-10T05:12:37;88353.41;;;5.00;63.74
8047;BME280;67150;42.516;23.358;2023-04-10T05:15:07;88353.41;;;5.00;63.83
8047;BME280;67150;42.516;23.358;2023-04-10T05:17:34;88353.31;;;5.01;63.55
8047;BME280;67150;42.516;23.358;2023-04-10T05:20:02;88345.19;;;4.98;63.87
8047;BME280;67150;42.516;23.358;2023-04-10T05:22:31;88346.81;;;4.99;63.60
8047;BME280;67150;42.516;23.358;2023-04-10T05:24:58;88351.72;;;5.00;63.94
8047;BME280;67150;42.516;23.358;2023-04-10T05:27:26;88341.81;;;4.99;63.58
8047;BME280;67150;42.516;23.358;2023-04-10T05:29:53;88341.63;;;5.02;63.85
8047;BME280;67150;42.516;23.358;2023-04-10T05:32:20;88343.34;;;5.01;63.72
8047;BME280;67150;42.516;23.358;2023-04-10T05:34:47;88348.25;;;5.03;63.65
8047;BME280;67150;42.516;23.358;2023-04-10T05:37:15;88345.84;;;5.01;63.42
8047;BME280;67150;42.516;23.358;2023-04-10T05:39:44;88349.84;;;5.04;63.52
8047;BME280;67150;42.516;23.358;2023-04-10T05:42:11;88352.41;;;5.02;63.62
8047;BME280;67150;42.516;23.358;2023-04-10T05:44:38;88353.31;;;5.01;63.65
8047;BME280;67150;42.516;23.358;2023-04-10T05:47:06;88349.03;;;5.03;63.50
8047;BME280;67150;42.516;23.358;2023-04-10T05:49:33;88352.41;;;5.02;63.70
8047;BME280;67150;42.516;23.358;2023-04-10T05:52:00;88353.22;;;5.03;64.00
8047;BME280;67150;42.516;23.358;2023-04-10T05:54:28;88356.59;;;5.02;63.87
8047;BME280;67150;42.516;23.358;2023-04-10T05:56:56;88357.50;;;5.01;63.98
8047;BME280;67150;42.516;23.358;2023-04-10T05:59:24;88359.09;;;5.02;63.62
8047;BME280;67150;42.516;23.358;2023-04-10T06:01:51;88353.31;;;5.01;63.59
8047;BME280;67150;42.516;23.358;2023-04-10T06:04:18;88367.34;;;5.04;63.56
8047;BME280;67150;42.516;23.358;2023-04-10T06:06:46;88359.09;;;5.02;63.86
8047;BME280;67150;42.516;23.358;2023-04-10T06:09:14;88361.59;;;5.02;63.75
8047;BME280;67150;42.516;23.358;2023-04-10T06:11:41;88369.91;;;5.02;63.99
8047;BME280;67150;42.516;23.358;2023-04-10T06:14:10;88366.53;;;5.03;64.02
8047;BME280;67150;42.516;23.358;2023-04-10T06:16:37;88357.41;;;5.02;64.09
8047;BME280;67150;42.516;23.358;2023-04-10T06:19:05;88358.94;;;5.05;63.67
8047;BME280;67150;42.516;23.358;2023-04-10T06:21:32;88364.84;;;5.04;63.78
8047;BME280;67150;42.516;23.358;2023-04-10T06:23:59;88368.22;;;5.03;63.79
8047;BME280;67150;42.516;23.358;2023-04-10T06:26:27;88359.03;;;5.03;64.01
8047;BME280;67150;42.516;23.358;2023-04-10T06:28:54;88363.22;;;5.03;63.72
8047;BME280;67150;42.516;23.358;2023-04-10T06:31:23;88360.81;;;5.01;63.80
8047;BME280;67150;42.516;23.358;2023-04-10T06:33:50;88367.41;;;5.02;63.92
8047;BME280;67150;42.516;23.358;2023-04-10T06:36:17;88369.81;;;5.04;63.96
8047;BME280;67150;42.516;23.358;2023-04-10T06:38:45;88359.19;;;5.00;64.05
8047;BME280;67150;42.516;23.358;2023-04-10T06:41:12;88376.50;;;5.03;64.21
8047;BME280;67150;42.516;23.358;2023-04-10T06:43:39;88371.50;;;5.03;63.74
8047;BME280;67150;42.516;23.358;2023-04-10T06:46:06;88374.00;;;5.03;63.88
8047;BME280;67150;42.516;23.358;2023-04-10T06:48:35;88371.59;;;5.02;63.96
8047;BME280;67150;42.516;23.358;2023-04-10T06:51:03;88369.03;;;5.03;63.97
8047;BME280;67150;42.516;23.358;2023-04-10T06:53:30;88369.09;;;5.02;63.91
8047;BME280;67150;42.516;23.358;2023-04-10T06:55:57;88366.59;;;5.02;64.03
8047;BME280;67150;42.516;23.358;2023-04-10T06:58:25;88373.31;;;5.01;64.20
8047;BME280;67150;42.516;23.358;2023-04-10T07:00:52;88375.78;;;5.01;63.90
8047;BME280;67150;42.516;23.358;2023-04-10T07:03:20;88375.00;;;5.01;63.98
8047;BME280;67150;42.516;23.358;2023-04-10T07:05:48;88378.19;;;5.03;64.24
8047;BME280;67150;42.516;23.358;2023-04-10T07:08:16;88378.19;;;5.03;63.75
8047;BME280;67150;42.516;23.358;2023-04-10T07:10:43;88384.00;;;5.03;63.68
8047;BME280;67150;42.516;23.358;2023-04-10T07:13:10;88384.81;;;5.04;63.63
8047;BME280;67150;42.516;23.358;2023-04-10T07:15:38;88377.38;;;5.02;63.60
8047;BME280;67150;42.516;23.358;2023-04-10T07:18:05;88371.59;;;5.02;64.05
8047;BME280;67150;42.516;23.358;2023-04-10T07:20:32;88374.88;;;5.02;63.53
8047;BME280;67150;42.516;23.358;2023-04-10T07:23:01;88384.81;;;5.04;63.71
8047;BME280;67150;42.516;23.358;2023-04-10T07:25:28;88378.19;;;5.03;63.58
8047;BME280;67150;42.516;23.358;2023-04-10T07:27:55;88378.28;;;5.01;63.71
8047;BME280;67150;42.516;23.358;2023-04-10T07:30:22;88379.88;;;5.02;63.62
8047;BME280;67150;42.516;23.358;2023-04-10T07:32:50;88380.69;;;5.03;63.66
8047;BME280;67150;42.516;23.358;2023-04-10T07:35:17;88379.81;;;5.04;64.10
8047;BME280;67150;42.516;23.358;2023-04-10T07:37:44;88376.50;;;5.03;63.82
8047;BME280;67150;42.516;23.358;2023-04-10T07:40:18;88382.31;;;5.04;64.12
8047;BME280;67150;42.516;23.358;2023-04-10T07:42:45;88383.19;;;5.03;63.90
8047;BME280;67150;42.516;23.358;2023-04-10T07:45:13;88377.22;;;5.05;63.62
8047;BME280;67150;42.516;23.358;2023-04-10T07:47:40;88378.19;;;5.03;63.75
8047;BME280;67150;42.516;23.358;2023-04-10T07:50:08;88377.31;;;5.04;63.68
8047;BME280;67150;42.516;23.358;2023-04-10T07:52:35;88378.91;;;5.05;63.61
8047;BME280;67150;42.516;23.358;2023-04-10T07:55:03;88381.50;;;5.03;63.99
8047;BME280;67150;42.516;23.358;2023-04-10T07:57:32;88379.81;;;5.04;63.91
8047;BME280;67150;42.516;23.358;2023-04-10T07:59:59;88377.31;;;5.04;64.08
8047;BME280;67150;42.516;23.358;2023-04-10T08:02:26;88378.13;;;5.04;63.58
8047;BME280;67150;42.516;23.358;2023-04-10T08:04:54;88374.81;;;5.04;63.99
8047;BME280;67150;42.516;23.358;2023-04-10T08:07:21;88368.16;;;5.04;63.71
8047;BME280;67150;42.516;23.358;2023-04-10T08:09:48;88378.91;;;5.05;63.88
8047;BME280;67150;42.516;23.358;2023-04-10T08:12:15;88379.66;;;5.07;63.55
8047;BME280;67150;42.516;23.358;2023-04-10T08:14:44;88372.41;;;5.02;64.11
8047;BME280;67150;42.516;23.358;2023-04-10T08:17:11;88376.41;;;5.05;63.88
8047;BME280;67150;42.516;23.358;2023-04-10T08:19:40;88379.72;;;5.05;63.67
8047;BME280;67150;42.516;23.358;2023-04-10T08:22:08;88377.31;;;5.04;63.75
8047;BME280;67150;42.516;23.358;2023-04-10T08:24:35;88369.03;;;5.03;64.27
8047;BME280;67150;42.516;23.358;2023-04-10T08:27:02;88370.63;;;5.04;63.99
8047;BME280;67150;42.516;23.358;2023-04-10T08:29:30;88383.91;;;5.05;63.60
8047;BME280;67150;42.516;23.358;2023-04-10T08:31:58;88381.41;;;5.05;64.02
8047;BME280;67150;42.516;23.358;2023-04-10T08:34:26;88379.72;;;5.05;63.69
8047;BME280;67150;42.516;23.358;2023-04-10T08:36:53;88383.13;;;5.04;63.78
8047;BME280;67150;42.516;23.358;2023-04-10T08:39:20;88383.91;;;5.05;63.55
8047;BME280;67150;42.516;23.358;2023-04-10T08:41:48;88375.47;;;5.07;63.61
8047;BME280;67150;42.516;23.358;2023-04-10T08:44:15;88374.66;;;5.07;63.66
8047;BME280;67150;42.516;23.358;2023-04-10T08:46:43;88378.84;;;5.06;63.60
8047;BME280;67150;42.516;23.358;2023-04-10T08:49:16;88373.03;;;5.06;63.94
8047;BME280;67150;42.516;23.358;2023-04-10T08:51:48;88381.34;;;5.06;63.55
8047;BME280;67150;42.516;23.358;2023-04-10T08:54:18;88379.66;;;5.07;63.50
8047;BME280;67150;42.516;23.358;2023-04-10T08:56:49;88380.53;;;5.06;63.88
8047;BME280;67150;42.516;23.358;2023-04-10T08:59:17;88373.84;;;5.06;63.72
8047;BME280;67150;42.516;23.358;2023-04-10T09:01:44;88382.16;;;5.07;63.90
8047;BME280;67150;42.516;23.358;2023-04-10T09:04:14;88382.22;;;5.05;63.83
8047;BME280;67150;42.516;23.358;2023-04-10T09:06:42;88383.84;;;5.06;63.61
8047;BME280;67150;42.516;23.358;2023-04-10T09:09:09;88378.03;;;5.06;63.92
8047;BME280;67150;42.516;23.358;2023-04-10T09:11:56;88367.97;;;5.07;63.65
8047;BME280;67150;42.516;23.358;2023-04-10T09:14:26;88376.25;;;5.08;63.90
8047;BME280;67150;42.516;23.358;2023-04-10T09:17:10;88372.88;;;5.09;63.80
8047;BME280;67150;42.516;23.358;2023-04-10T09:19:39;88370.47;;;5.07;63.80
8047;BME280;67150;42.516;23.358;2023-04-10T09:22:07;88372.16;;;5.07;63.66
8047;BME280;67150;42.516;23.358;2023-04-10T09:24:35;88368.84;;;5.06;63.81
8047;BME280;67150;42.516;23.358;2023-04-10T09:27:03;88364.66;;;5.07;63.65
8047;BME280;67150;42.516;23.358;2023-04-10T09:29:44;88356.38;;;5.06;63.76
8047;BME280;67150;42.516;23.358;2023-04-10T09:32:37;88358.78;;;5.08;63.80
8047;BME280;67150;42.516;23.358;2023-04-10T09:35:07;88350.56;;;5.06;63.88
8047;BME280;67150;42.516;23.358;2023-04-10T09:37:35;88356.28;;;5.08;63.66
8047;BME280;67150;42.516;23.358;2023-04-10T09:40:03;88352.91;;;5.09;63.91
8047;BME280;67150;42.516;23.358;2023-04-10T09:42:31;88346.22;;;5.09;63.76
8047;BME280;67150;42.516;23.358;2023-04-10T09:45:00;88342.91;;;5.09;63.70
8047;BME280;67150;42.516;23.358;2023-04-10T09:47:27;88350.41;;;5.09;63.85
8047;BME280;67150;42.516;23.358;2023-04-10T09:49:56;88347.03;;;5.10;63.51
8047;BME280;67150;42.516;23.358;2023-04-10T09:52:28;88345.34;;;5.11;63.89
8047;BME280;67150;42.516;23.358;2023-04-10T09:54:58;88353.72;;;5.09;63.94
8047;BME280;67150;42.516;23.358;2023-04-10T09:57:26;88344.53;;;5.10;63.96
8047;BME280;67150;42.516;23.358;2023-04-10T09:59:55;88351.09;;;5.11;63.54
8047;BME280;67150;42.516;23.358;2023-04-10T10:02:24;88352.72;;;5.12;63.89
8047;BME280;67150;42.516;23.358;2023-04-10T10:04:52;88346.13;;;5.11;63.90
8047;BME280;67150;42.516;23.358;2023-04-10T10:07:21;88346.06;;;5.13;63.99
8047;BME280;67150;42.516;23.358;2023-04-10T10:09:51;88336.88;;;5.13;64.27
8047;BME280;67150;42.516;23.358;2023-04-10T10:12:21;88337.75;;;5.12;64.83
8047;BME280;67150;42.516;23.358;2023-04-10T10:14:54;88341.75;;;5.15;64.22
8047;BME280;67150;42.516;23.358;2023-04-10T10:17:26;88325.97;;;5.14;64.24
8047;BME280;67150;42.516;23.358;2023-04-10T10:20:01;88326.78;;;5.15;64.26
8047;BME280;67150;42.516;23.358;2023-04-10T10:22:29;88330.09;;;5.15;63.74
8047;BME280;67150;42.516;23.358;2023-04-10T10:24:58;88330.09;;;5.15;64.37
8047;BME280;67150;42.516;23.358;2023-04-10T10:27:27;88314.22;;;5.16;64.06
8047;BME280;67150;42.516;23.358;2023-04-10T10:29:58;88321.56;;;5.19;64.33
8047;BME280;67150;42.516;23.358;2023-04-10T10:32:26;88319.94;;;5.18;64.06
8047;BME280;67150;42.516;23.358;2023-04-10T10:34:54;88322.25;;;5.21;64.38
8047;BME280;67150;42.516;23.358;2023-04-10T10:37:22;88320.63;;;5.20;64.46
8047;BME280;67150;42.516;23.358;2023-04-10T10:39:56;88307.44;;;5.18;64.48
8047;BME280;67150;42.516;23.358;2023-04-10T10:42:31;88305.81;;;5.17;64.58
8047;BME280;67150;42.516;23.358;2023-04-10T10:45:08;88301.22;;;5.25;64.84
8047;BME280;67150;42.516;23.358;2023-04-10T10:47:40;88305.31;;;5.26;64.57
8047;BME280;67150;42.516;23.358;2023-04-10T10:50:08;88305.47;;;5.23;64.43
8047;BME280;67150;42.516;23.358;2023-04-10T10:52:43;88305.66;;;5.20;64.19
8047;BME280;67150;42.516;23.358;2023-04-10T10:55:30;88303.00;;;5.23;64.25
8047;BME280;67150;42.516;23.358;2023-04-10T10:58:02;88297.13;;;5.24;64.60
8047;BME280;67150;42.516;23.358;2023-04-10T11:01:04;88300.50;;;5.23;64.78
8047;BME280;67150;42.516;23.358;2023-04-10T11:03:32;88295.50;;;5.23;64.34
8047;BME280;67150;42.516;23.358;2023-04-10T11:06:00;88294.69;;;5.23;64.58
8047;BME280;67150;42.516;23.358;2023-04-10T11:08:42;88289.63;;;5.24;64.46
8047;BME280;67150;42.516;23.358;2023-04-10T11:11:13;88291.25;;;5.25;64.85
8047;BME280;67150;42.516;23.358;2023-04-10T11:14:12;88282.03;;;5.26;64.83
8047;BME280;67150;42.516;23.358;2023-04-10T11:16:46;88285.44;;;5.25;65.50
8047;BME280;67150;42.516;23.358;2023-04-10T11:19:14;88297.81;;;5.26;65.07
8047;BME280;67150;42.516;23.358;2023-04-10T11:22:04;88286.94;;;5.27;65.27
8047;BME280;67150;42.516;23.358;2023-04-10T11:24:51;88292.75;;;5.28;65.02
8047;BME280;67150;42.516;23.358;2023-04-10T11:27:38;88283.56;;;5.28;64.90
8047;BME280;67150;42.516;23.358;2023-04-10T11:30:28;88288.56;;;5.28;65.40
8047;BME280;67150;42.516;23.358;2023-04-10T11:32:56;88285.25;;;5.28;65.09
8047;BME280;67150;42.516;23.358;2023-04-10T11:35:25;88276.25;;;5.25;65.35
8047;BME280;67150;42.516;23.358;2023-04-10T11:38:10;88266.88;;;5.29;64.88
8047;BME280;67150;42.516;23.358;2023-04-10T11:40:59;88276.78;;;5.30;64.51
8047;BME280;67150;42.516;23.358;2023-04-10T11:43:27;88275.16;;;5.29;64.11
8047;BME280;67150;42.516;23.358;2023-04-10T11:46:00;88273.59;;;5.28;64.47
8047;BME280;67150;42.516;23.358;2023-04-10T11:48:28;88264.38;;;5.29;64.55
8047;BME280;67150;42.516;23.358;2023-04-10T11:50:56;88260.19;;;5.29;64.65
8047;BME280;67150;42.516;23.358;2023-04-10T11:53:24;88261.97;;;5.27;64.47
8047;BME280;67150;42.516;23.358;2023-04-10T11:55:51;88256.81;;;5.30;64.87
8047;BME280;67150;42.516;23.358;2023-04-10T11:58:23;88261.81;;;5.30;64.68
8047;BME280;67150;42.516;23.358;2023-04-10T12:01:03;88262.63;;;5.31;64.98
8047;BME280;67150;42.516;23.358;2023-04-10T12:03:35;88250.13;;;5.31;64.54
8047;BME280;67150;42.516;23.358;2023-04-10T12:06:03;88257.63;;;5.31;64.28
8047;BME280;67150;42.516;23.358;2023-04-10T12:08:33;88251.63;;;5.33;63.98
8047;BME280;67150;42.516;23.358;2023-04-10T12:11:01;88251.72;;;5.32;64.34
8047;BME280;67150;42.516;23.358;2023-04-10T12:13:29;88246.66;;;5.33;63.98
8047;BME280;67150;42.516;23.358;2023-04-10T12:15:58;88247.44;;;5.34;64.26
8047;BME280;67150;42.516;23.358;2023-04-10T12:18:28;88245.84;;;5.33;64.25
8047;BME280;67150;42.516;23.358;2023-04-10T12:20:56;88253.22;;;5.34;64.59
8047;BME280;67150;42.516;23.358;2023-04-10T12:23:25;88250.72;;;5.34;64.76
8047;BME280;67150;42.516;23.358;2023-04-10T12:26:05;88241.66;;;5.33;64.79
8047;BME280;67150;42.516;23.358;2023-04-10T12:28:35;88233.25;;;5.34;65.09
8047;BME280;67150;42.516;23.358;2023-04-10T12:31:02;88232.38;;;5.35;64.94
8047;BME280;67150;42.516;23.358;2023-04-10T12:33:31;88239.03;;;5.35;64.54
8047;BME280;67150;42.516;23.358;2023-04-10T12:35:58;88230.75;;;5.34;65.09
8047;BME280;67150;42.516;23.358;2023-04-10T12:38:39;88231.38;;;5.38;65.27
8047;BME280;67150;42.516;23.358;2023-04-10T12:41:08;88233.06;;;5.37;65.10
8047;BME280;67150;42.516;23.358;2023-04-10T12:43:37;88238.97;;;5.36;64.83
8047;BME280;67150;42.516;23.358;2023-04-10T12:46:07;88235.66;;;5.36;64.86
8047;BME280;67150;42.516;23.358;2023-04-10T12:48:36;88235.56;;;5.37;64.49
8047;BME280;67150;42.516;23.358;2023-04-10T12:51:03;88242.28;;;5.37;64.99
8047;BME280;67150;42.516;23.358;2023-04-10T12:53:31;88231.38;;;5.38;64.51
8047;BME280;67150;42.516;23.358;2023-04-10T12:56:09;88225.50;;;5.39;64.65
8047;BME280;67150;42.516;23.358;2023-04-10T12:58:38;88226.31;;;5.39;64.74
8047;BME280;67150;42.516;23.358;2023-04-10T13:01:08;88235.50;;;5.39;65.12
8047;BME280;67150;42.516;23.358;2023-04-10T13:03:37;88236.31;;;5.39;64.65
8047;BME280;67150;42.516;23.358;2023-04-10T13:06:05;88238.81;;;5.39;64.48
8047;BME280;67150;42.516;23.358;2023-04-10T13:08:33;88229.69;;;5.38;64.54
8047;BME280;67150;42.516;23.358;2023-04-10T13:11:00;88233.81;;;5.39;64.69
8047;BME280;67150;42.516;23.358;2023-04-10T13:13:29;88238.00;;;5.39;64.52
8047;BME280;67150;42.516;23.358;2023-04-10T13:15:57;88235.50;;;5.39;64.27
8047;BME280;67150;42.516;23.358;2023-04-10T13:18:25;88238.69;;;5.41;64.31
8047;BME280;67150;42.516;23.358;2023-04-10T13:20:54;88228.81;;;5.39;64.12
8047;BME280;67150;42.516;23.358;2023-04-10T13:23:21;88217.91;;;5.40;64.11